createdAt,value
2018-12-24T00:01:18.619Z,5.91
2018-12-24T00:03:47.181Z,5.86
2018-12-24T00:06:15.720Z,5.87
2018-12-24T00:08:44.385Z,5.85
2018-12-24T00:11:12.931Z,5.83
2018-12-24T00:13:41.473Z,5.83
2018-12-24T00:16:10.090Z,5.75
2018-12-24T00:18:38.629Z,5.76
2018-12-24T00:21:07.210Z,5.81
2018-12-24T00:23:35.721Z,5.79
2018-12-24T00:26:04.372Z,5.81
2018-12-24T00:28:32.970Z,5.81
2018-12-24T00:31:01.673Z,5.82
2018-12-24T00:33:30.215Z,5.72
2018-12-24T00:35:58.783Z,5.62
2018-12-24T00:38:27.329Z,5.40
2018-12-24T00:40:55.911Z,5.32
2018-12-24T00:43:24.457Z,5.18
2018-12-24T00:45:53.104Z,5.05
2018-12-24T00:48:21.650Z,5.01
2018-12-24T00:50:50.340Z,4.95
2018-12-24T00:53:18.870Z,4.99
2018-12-24T00:55:47.467Z,4.97
2018-12-24T00:58:16.019Z,4.86
2018-12-24T01:00:44.588Z,4.68
2018-12-24T01:03:13.132Z,4.55
2018-12-24T01:05:41.926Z,4.42
2018-12-24T01:08:13.297Z,4.45
2018-12-24T01:10:41.858Z,4.36
2018-12-24T01:13:10.417Z,4.46
2018-12-24T01:15:38.986Z,4.39
2018-12-24T01:18:07.528Z,4.41
2018-12-24T01:20:37.752Z,4.37
2018-12-24T01:23:06.326Z,4.36
2018-12-24T01:25:34.890Z,4.40
2018-12-24T01:28:03.437Z,4.47
2018-12-24T01:30:32.125Z,4.34
2018-12-24T01:33:03.361Z,4.29
2018-12-24T01:35:32.118Z,4.18
2018-12-24T01:38:00.691Z,4.23
2018-12-24T01:40:29.226Z,4.18
2018-12-24T01:42:57.792Z,4.22
2018-12-24T01:45:26.356Z,4.19
2018-12-24T01:47:54.913Z,4.26
2018-12-24T01:50:27.048Z,4.20
2018-12-24T01:52:58.154Z,4.20
2018-12-24T01:55:26.683Z,4.18
2018-12-24T01:57:55.281Z,4.23
2018-12-24T02:00:23.817Z,4.06
2018-12-24T02:02:52.380Z,4.15
2018-12-24T02:05:20.916Z,4.03
2018-12-24T02:07:49.490Z,4.10
2018-12-24T02:10:18.026Z,3.96
2018-12-24T02:12:46.584Z,3.97
2018-12-24T02:15:15.124Z,3.98
2018-12-24T02:17:43.697Z,3.97
2018-12-24T02:20:12.310Z,3.92
2018-12-24T02:22:40.901Z,3.98
2018-12-24T02:25:09.428Z,3.92
2018-12-24T02:27:38.002Z,4.00
2018-12-24T02:30:06.703Z,3.92
2018-12-24T02:32:35.255Z,3.91
2018-12-24T02:35:03.802Z,3.89
2018-12-24T02:37:32.378Z,3.79
2018-12-24T02:40:00.940Z,3.89
2018-12-24T02:42:29.504Z,3.87
2018-12-24T02:44:58.059Z,3.88
2018-12-24T02:47:26.626Z,3.88
2018-12-24T02:49:55.171Z,3.87
2018-12-24T02:52:23.737Z,3.86
2018-12-24T02:54:52.286Z,3.82
2018-12-24T02:57:20.864Z,3.88
2018-12-24T02:59:49.434Z,3.82
2018-12-24T03:02:17.976Z,3.82
2018-12-24T03:04:46.536Z,3.77
2018-12-24T03:07:15.094Z,3.72
2018-12-24T03:09:43.758Z,3.71
2018-12-24T03:12:12.290Z,3.84
2018-12-24T03:14:40.848Z,3.80
2018-12-24T03:17:09.402Z,3.74
2018-12-24T03:19:37.964Z,3.68
2018-12-24T03:22:06.529Z,3.73
2018-12-24T03:24:35.097Z,3.74
2018-12-24T03:27:03.634Z,3.63
2018-12-24T03:29:32.244Z,3.60
2018-12-24T03:32:00.785Z,3.65
2018-12-24T03:34:29.333Z,3.71
2018-12-24T03:36:57.908Z,3.72
2018-12-24T03:39:26.463Z,3.73
2018-12-24T03:41:55.003Z,3.73
2018-12-24T03:44:23.600Z,3.77
2018-12-24T03:46:52.213Z,3.81
2018-12-24T03:49:20.765Z,3.85
2018-12-24T03:51:49.322Z,3.89
2018-12-24T03:54:17.933Z,3.88
2018-12-24T03:56:46.553Z,3.84
2018-12-24T03:59:15.059Z,3.80
2018-12-24T04:01:43.599Z,3.85
2018-12-24T04:04:12.187Z,3.83
2018-12-24T04:06:40.707Z,3.83
2018-12-24T04:09:09.277Z,3.79
2018-12-24T04:11:37.813Z,3.65
2018-12-24T04:14:06.365Z,3.65
2018-12-24T04:16:34.905Z,3.53
2018-12-24T04:19:03.485Z,3.37
2018-12-24T04:21:32.008Z,3.32
2018-12-24T04:24:00.572Z,3.33
2018-12-24T04:26:29.107Z,3.19
2018-12-24T04:28:57.649Z,3.07
2018-12-24T04:31:26.181Z,3.12
2018-12-24T04:33:54.733Z,3.00
2018-12-24T04:36:23.289Z,2.89
2018-12-24T04:38:51.843Z,2.78
2018-12-24T04:41:20.384Z,2.82
2018-12-24T04:43:48.944Z,2.82
2018-12-24T04:46:17.499Z,2.76
2018-12-24T04:48:46.027Z,2.82
2018-12-24T04:51:14.588Z,2.73
2018-12-24T04:53:43.116Z,2.73
2018-12-24T04:56:11.668Z,2.66
2018-12-24T04:58:40.210Z,2.68
2018-12-24T05:01:08.766Z,2.71
2018-12-24T05:03:37.286Z,2.74
2018-12-24T05:06:05.851Z,2.77
2018-12-24T05:08:34.388Z,2.71
2018-12-24T05:11:02.952Z,2.67
2018-12-24T05:13:31.520Z,2.63
2018-12-24T05:16:00.085Z,2.65
2018-12-24T05:18:28.620Z,2.73
2018-12-24T05:20:57.192Z,2.70
2018-12-24T05:23:25.766Z,2.74
2018-12-24T05:25:54.461Z,2.70
2018-12-24T05:28:23.001Z,2.60
2018-12-24T05:30:51.562Z,2.60
2018-12-24T05:33:20.109Z,2.67
2018-12-24T05:35:48.664Z,2.60
2018-12-24T05:38:17.200Z,2.65
2018-12-24T05:40:45.764Z,2.77
2018-12-24T05:43:14.302Z,2.82
2018-12-24T05:45:42.940Z,2.81
2018-12-24T05:48:11.478Z,2.79
2018-12-24T05:50:40.046Z,2.79
2018-12-24T05:53:08.583Z,2.81
2018-12-24T05:55:37.155Z,2.91
2018-12-24T05:58:05.708Z,2.88
2018-12-24T06:00:34.244Z,2.84
2018-12-24T06:03:02.797Z,2.72
2018-12-24T06:05:31.337Z,2.58
2018-12-24T06:07:59.917Z,2.34
2018-12-24T06:10:28.513Z,2.29
2018-12-24T06:12:57.068Z,2.31
2018-12-24T06:15:25.631Z,2.33
2018-12-24T06:17:54.184Z,2.23
2018-12-24T06:20:22.723Z,2.20
2018-12-24T06:22:51.274Z,2.16
2018-12-24T06:25:19.820Z,2.21
2018-12-24T06:27:48.369Z,2.21
2018-12-24T06:30:16.909Z,2.27
2018-12-24T06:32:45.513Z,2.23
2018-12-24T06:35:14.003Z,2.29
2018-12-24T06:37:42.573Z,2.28
2018-12-24T06:40:11.113Z,2.24
2018-12-24T06:42:39.665Z,2.20
2018-12-24T06:45:08.197Z,2.24
2018-12-24T06:47:36.759Z,2.27
2018-12-24T06:50:05.657Z,2.19
2018-12-24T06:52:34.216Z,2.28
2018-12-24T06:55:02.763Z,2.32
2018-12-24T06:57:31.331Z,2.27
2018-12-24T06:59:59.858Z,2.26
2018-12-24T07:02:28.413Z,2.25
2018-12-24T07:04:56.956Z,2.18
2018-12-24T07:07:25.529Z,2.17
2018-12-24T07:09:54.064Z,2.03
2018-12-24T07:12:22.650Z,1.93
2018-12-24T07:14:51.201Z,1.93
2018-12-24T07:17:19.752Z,2.00
2018-12-24T07:19:48.284Z,2.04
2018-12-24T07:22:16.824Z,2.05
2018-12-24T07:24:45.378Z,1.99
2018-12-24T07:27:13.918Z,2.13
2018-12-24T07:29:42.482Z,1.96
2018-12-24T07:32:11.040Z,1.89
2018-12-24T07:34:39.588Z,1.87
2018-12-24T07:37:08.124Z,1.94
2018-12-24T07:39:36.694Z,1.88
2018-12-24T07:42:05.230Z,2.03
2018-12-24T07:44:33.813Z,2.00
2018-12-24T07:47:02.345Z,1.81
2018-12-24T07:49:30.894Z,1.93
2018-12-24T07:51:59.428Z,2.00
2018-12-24T07:54:28.010Z,1.97
2018-12-24T07:56:56.536Z,1.96
2018-12-24T07:59:25.100Z,1.94
2018-12-24T08:01:53.642Z,1.95
2018-12-24T08:04:22.211Z,2.08
2018-12-24T08:06:50.743Z,2.01
2018-12-24T08:09:19.308Z,1.97
2018-12-24T08:11:47.830Z,1.87
2018-12-24T08:14:16.393Z,1.94
2018-12-24T08:16:44.938Z,2.01
2018-12-24T08:19:13.492Z,1.93
2018-12-24T08:21:42.034Z,1.92
2018-12-24T08:24:10.586Z,1.87
2018-12-24T08:26:39.136Z,1.85
2018-12-24T08:29:07.674Z,1.92
2018-12-24T08:31:36.278Z,1.83
2018-12-24T08:34:04.815Z,1.69
2018-12-24T08:36:33.460Z,1.59
2018-12-24T08:39:02.018Z,1.71
2018-12-24T08:41:30.587Z,1.59
2018-12-24T08:43:59.138Z,1.64
2018-12-24T08:46:27.860Z,1.61
2018-12-24T08:48:56.402Z,1.62
2018-12-24T08:51:25.010Z,1.64
2018-12-24T08:53:53.505Z,1.60
2018-12-24T08:56:22.067Z,1.56
2018-12-24T08:58:50.597Z,1.58
2018-12-24T09:01:19.167Z,1.67
2018-12-24T09:03:47.727Z,1.59
2018-12-24T09:06:16.305Z,1.47
2018-12-24T09:08:44.848Z,1.35
2018-12-24T09:11:13.396Z,1.32
2018-12-24T09:13:41.943Z,1.41
2018-12-24T09:16:10.500Z,1.41
2018-12-24T09:18:39.047Z,1.54
2018-12-24T09:21:07.598Z,1.51
2018-12-24T09:23:36.144Z,1.47
2018-12-24T09:26:04.705Z,1.54
2018-12-24T09:28:33.244Z,1.48
2018-12-24T09:31:01.801Z,1.38
2018-12-24T09:33:30.340Z,1.22
2018-12-24T09:36:00.544Z,1.29
2018-12-24T09:38:29.062Z,1.41
2018-12-24T09:40:57.730Z,1.50
2018-12-24T09:43:26.258Z,1.53
2018-12-24T09:45:54.818Z,1.57
2018-12-24T09:48:23.346Z,1.54
2018-12-24T09:50:51.924Z,1.60
2018-12-24T09:53:20.462Z,1.65
2018-12-24T09:55:49.086Z,1.73
2018-12-24T09:58:17.666Z,1.72
2018-12-24T10:00:46.211Z,1.81
2018-12-24T10:03:15.079Z,1.71
2018-12-24T10:05:43.638Z,1.75
2018-12-24T10:08:13.923Z,1.79
2018-12-24T10:10:42.471Z,1.76
2018-12-24T10:13:11.032Z,1.82
2018-12-24T10:15:39.578Z,1.67
2018-12-24T10:18:08.120Z,1.74
2018-12-24T10:20:36.666Z,1.87
2018-12-24T10:23:05.225Z,1.91
2018-12-24T10:25:33.762Z,1.77
2018-12-24T10:28:02.339Z,1.81
2018-12-24T10:30:30.888Z,1.93
2018-12-24T10:32:59.470Z,1.91
2018-12-24T10:35:28.012Z,1.92
2018-12-24T10:37:56.589Z,1.88
2018-12-24T10:40:25.136Z,1.81
2018-12-24T10:42:53.728Z,1.64
2018-12-24T10:45:22.251Z,1.73
2018-12-24T10:47:50.839Z,1.74
2018-12-24T10:50:19.383Z,1.70
2018-12-24T10:52:47.961Z,1.56
2018-12-24T10:55:16.509Z,1.64
2018-12-24T10:57:45.069Z,1.59
2018-12-24T11:00:13.617Z,1.77
2018-12-24T11:02:42.170Z,1.62
2018-12-24T11:05:10.722Z,1.50
2018-12-24T11:07:39.257Z,1.53
2018-12-24T11:10:09.859Z,1.49
2018-12-24T11:12:38.405Z,1.57
2018-12-24T11:15:09.018Z,1.49
2018-12-24T11:17:37.608Z,1.40
2018-12-24T11:20:07.401Z,1.43
2018-12-24T11:22:35.958Z,1.43
2018-12-24T11:25:04.577Z,1.56
2018-12-24T11:27:33.137Z,1.58
2018-12-24T11:30:01.704Z,1.57
2018-12-24T11:32:30.252Z,1.53
2018-12-24T11:34:58.803Z,1.55
2018-12-24T11:37:27.331Z,1.50
2018-12-24T11:39:55.872Z,1.44
2018-12-24T11:42:26.046Z,1.50
2018-12-24T11:44:54.756Z,1.35
2018-12-24T11:47:23.306Z,1.36
2018-12-24T11:49:51.887Z,1.42
2018-12-24T11:52:20.440Z,1.42
2018-12-24T11:54:48.993Z,1.50
2018-12-24T11:57:17.561Z,1.50
2018-12-24T11:59:46.125Z,1.58
2018-12-24T12:02:14.665Z,1.68
2018-12-24T12:04:43.239Z,1.57
2018-12-24T12:07:11.791Z,1.60
2018-12-24T12:09:40.364Z,1.67
2018-12-24T12:12:08.896Z,1.62
2018-12-24T12:14:37.467Z,1.60
2018-12-24T12:17:06.009Z,1.68
2018-12-24T12:19:34.590Z,1.72
2018-12-24T12:22:03.125Z,1.80
2018-12-24T12:24:31.699Z,1.71
2018-12-24T12:27:00.255Z,1.73
2018-12-24T12:29:28.823Z,1.65
2018-12-24T12:31:57.378Z,1.65
2018-12-24T12:34:25.930Z,1.78
2018-12-24T12:36:54.493Z,1.84
2018-12-24T12:39:23.031Z,1.85
2018-12-24T12:41:51.605Z,1.87
2018-12-24T12:44:20.160Z,1.92
2018-12-24T12:46:48.730Z,2.10
2018-12-24T12:49:17.283Z,1.98
2018-12-24T12:51:45.839Z,1.94
2018-12-24T12:54:14.387Z,1.94
2018-12-24T12:56:42.961Z,1.95
2018-12-24T12:59:11.505Z,1.95
2018-12-24T13:01:40.066Z,1.93
2018-12-24T13:04:08.606Z,1.99
2018-12-24T13:06:37.183Z,1.89
2018-12-24T13:09:06.910Z,1.96
2018-12-24T13:11:35.487Z,1.93
2018-12-24T13:14:04.037Z,1.93
2018-12-24T13:16:32.609Z,1.93
2018-12-24T13:19:01.176Z,1.82
2018-12-24T13:21:29.732Z,1.88
2018-12-24T13:23:58.269Z,1.91
2018-12-24T13:26:27.012Z,1.87
2018-12-24T13:28:55.545Z,1.77
2018-12-24T13:31:24.131Z,1.87
2018-12-24T13:33:52.668Z,1.89
2018-12-24T13:36:21.220Z,1.93
2018-12-24T13:38:49.781Z,1.91
2018-12-24T13:41:18.375Z,1.93
2018-12-24T13:43:46.913Z,1.95
2018-12-24T13:46:15.478Z,1.93
2018-12-24T13:48:44.022Z,2.09
2018-12-24T13:51:12.663Z,2.06
2018-12-24T13:53:42.058Z,2.06
2018-12-24T13:56:10.866Z,1.95
2018-12-24T13:59:23.457Z,2.11
2018-12-24T14:01:50.785Z,2.04
2018-12-24T14:04:19.223Z,2.02
2018-12-24T14:06:47.673Z,2.17
2018-12-24T14:09:16.110Z,2.24
2018-12-24T14:11:44.560Z,2.16
2018-12-24T14:14:12.996Z,2.27
2018-12-24T14:16:41.495Z,2.39
2018-12-24T14:19:09.935Z,2.34
2018-12-24T14:21:38.375Z,2.15
2018-12-24T14:24:06.857Z,2.13
2018-12-24T14:26:35.344Z,2.22
2018-12-24T14:29:03.804Z,2.26
2018-12-24T14:31:32.245Z,2.34
2018-12-24T14:34:00.764Z,2.38
2018-12-24T14:36:29.159Z,2.20
2018-12-24T14:38:57.614Z,2.28
2018-12-24T14:41:26.050Z,2.22
2018-12-24T14:43:54.536Z,2.16
2018-12-24T14:46:25.738Z,2.19
2018-12-24T14:48:53.150Z,2.22
2018-12-24T14:51:21.593Z,2.27
2018-12-24T14:53:50.048Z,2.28
2018-12-24T14:56:18.502Z,2.26
2018-12-24T14:58:46.977Z,2.31
2018-12-24T15:01:15.407Z,2.23
2018-12-24T15:03:43.859Z,2.13
2018-12-24T15:06:12.303Z,2.17
2018-12-24T15:08:40.773Z,2.21
2018-12-24T15:11:09.199Z,2.22
2018-12-24T15:13:37.659Z,2.35
2018-12-24T15:16:06.101Z,2.21
2018-12-24T15:18:34.589Z,2.27
2018-12-24T15:21:03.019Z,2.21
2018-12-24T15:23:31.477Z,2.26
2018-12-24T15:25:59.933Z,2.30
2018-12-24T15:28:28.395Z,2.33
2018-12-24T15:30:56.836Z,2.35
2018-12-24T15:33:25.262Z,2.36
2018-12-24T15:35:53.712Z,2.39
2018-12-24T15:38:22.148Z,2.30
2018-12-24T15:40:50.605Z,2.28
2018-12-24T15:43:19.046Z,2.35
2018-12-24T15:45:47.528Z,2.37
2018-12-24T15:48:15.975Z,2.31
2018-12-24T15:50:44.426Z,2.30
2018-12-24T15:53:12.877Z,2.38
2018-12-24T15:55:41.332Z,2.41
2018-12-24T15:58:09.768Z,2.45
2018-12-24T16:00:38.235Z,2.52
2018-12-24T16:03:06.675Z,2.51
2018-12-24T16:05:35.148Z,2.57
2018-12-24T16:08:03.717Z,2.53
2018-12-24T16:10:32.142Z,2.62
2018-12-24T16:13:01.577Z,2.64
2018-12-24T16:15:30.139Z,2.59
2018-12-24T16:17:58.560Z,2.45
2018-12-24T16:20:27.019Z,2.55
2018-12-24T16:22:55.520Z,2.52
2018-12-24T16:25:23.988Z,2.52
2018-12-24T16:27:52.419Z,2.50
2018-12-24T16:30:20.878Z,2.47
2018-12-24T16:32:49.318Z,2.54
2018-12-24T16:35:17.778Z,2.49
2018-12-24T16:37:46.293Z,2.48
2018-12-24T16:40:14.797Z,2.53
2018-12-24T16:42:43.279Z,2.72
2018-12-24T16:45:11.676Z,2.61
2018-12-24T16:47:40.159Z,2.63
2018-12-24T16:50:08.590Z,2.58
2018-12-24T16:52:37.056Z,2.64
2018-12-24T16:55:05.495Z,2.60
2018-12-24T16:57:33.953Z,2.62
2018-12-24T17:00:02.410Z,2.50
2018-12-24T17:02:30.992Z,2.38
2018-12-24T17:04:59.441Z,2.48
2018-12-24T17:07:27.902Z,2.47
2018-12-24T17:09:56.344Z,2.46
2018-12-24T17:12:24.808Z,2.55
2018-12-24T17:14:53.278Z,2.54
2018-12-24T17:17:21.734Z,2.49
2018-12-24T17:19:50.169Z,2.47
2018-12-24T17:22:18.624Z,2.50
2018-12-24T17:24:47.090Z,2.52
2018-12-24T17:27:15.548Z,2.62
2018-12-24T17:29:43.992Z,2.56
2018-12-24T17:32:12.458Z,2.50
2018-12-24T17:34:40.939Z,2.55
2018-12-24T17:37:09.383Z,2.52
2018-12-24T17:39:37.829Z,2.50
2018-12-24T17:42:06.287Z,2.58
2018-12-24T17:44:34.721Z,2.55
2018-12-24T17:47:03.187Z,2.53
2018-12-24T17:49:31.632Z,2.61
2018-12-24T17:52:00.108Z,2.67
2018-12-24T17:54:28.543Z,2.73
2018-12-24T17:56:56.972Z,2.60
2018-12-24T17:59:25.463Z,2.58
2018-12-24T18:01:53.993Z,2.62
2018-12-24T18:04:22.433Z,2.62
2018-12-24T18:06:50.873Z,2.54
2018-12-24T18:09:19.343Z,2.43
2018-12-24T18:11:47.781Z,2.48
2018-12-24T18:14:16.247Z,2.39
2018-12-24T18:16:44.681Z,2.43
2018-12-24T18:19:13.141Z,2.44
2018-12-24T18:21:41.584Z,2.46
2018-12-24T18:24:10.034Z,2.48
2018-12-24T18:26:38.482Z,2.39
2018-12-24T18:29:06.962Z,2.42
2018-12-24T18:31:35.399Z,2.41
2018-12-24T18:34:03.854Z,2.60
2018-12-24T18:36:32.298Z,2.60
2018-12-24T18:39:00.751Z,2.62
2018-12-24T18:41:29.197Z,2.65
2018-12-24T18:43:57.651Z,2.55
2018-12-24T18:46:26.081Z,2.62
2018-12-24T18:48:54.538Z,2.65
2018-12-24T18:51:22.992Z,2.70
2018-12-24T18:53:51.455Z,2.63
2018-12-24T18:56:19.898Z,2.64
2018-12-24T18:58:48.359Z,2.76
2018-12-24T19:01:16.799Z,2.72
2018-12-24T19:03:45.278Z,2.67
2018-12-24T19:06:13.721Z,2.69
2018-12-24T19:08:42.318Z,2.69
2018-12-24T19:11:11.476Z,2.57
2018-12-24T19:13:40.016Z,2.70
2018-12-24T19:16:08.449Z,2.80
2018-12-24T19:18:36.896Z,2.73
2018-12-24T19:21:05.366Z,2.73
2018-12-24T19:23:33.798Z,2.65
2018-12-24T19:26:02.405Z,2.64
2018-12-24T19:28:30.855Z,2.68
2018-12-24T19:30:59.351Z,2.70
2018-12-24T19:33:29.414Z,2.75
2018-12-24T19:35:57.881Z,2.68
2018-12-24T19:38:26.315Z,2.71
2018-12-24T19:40:54.786Z,2.72
2018-12-24T19:43:23.221Z,2.72
2018-12-24T19:45:51.684Z,2.74
2018-12-24T19:48:20.122Z,2.77
2018-12-24T19:50:48.579Z,2.78
2018-12-24T19:53:17.035Z,2.85
2018-12-24T19:55:45.481Z,2.77
2018-12-24T19:58:13.925Z,2.79
2018-12-24T20:00:42.387Z,2.68
2018-12-24T20:03:10.825Z,2.67
2018-12-24T20:05:39.276Z,2.66
2018-12-24T20:08:07.707Z,2.73
2018-12-24T20:10:39.301Z,2.78
2018-12-24T20:13:07.746Z,2.81
2018-12-24T20:15:36.179Z,2.77
2018-12-24T20:18:04.709Z,2.78
2018-12-24T20:20:33.123Z,2.83
2018-12-24T20:23:01.569Z,2.84
2018-12-24T20:25:30.082Z,2.84
2018-12-24T20:27:58.529Z,2.84
2018-12-24T20:30:26.982Z,2.78
2018-12-24T20:32:55.457Z,2.86
2018-12-24T20:35:23.893Z,2.78
2018-12-24T20:37:52.444Z,2.85
2018-12-24T20:40:20.866Z,2.79
2018-12-24T20:42:49.319Z,2.72
2018-12-24T20:45:17.762Z,2.83
2018-12-24T20:47:46.225Z,2.91
2018-12-24T20:50:14.666Z,2.91
2018-12-24T20:52:43.130Z,2.88
2018-12-24T20:55:11.569Z,3.00
2018-12-24T20:57:40.043Z,2.98
2018-12-24T21:00:08.667Z,3.07
2018-12-24T21:02:37.133Z,3.05
2018-12-24T21:05:06.715Z,3.02
2018-12-24T21:07:35.176Z,3.00
2018-12-24T21:10:03.695Z,3.05
2018-12-24T21:12:32.154Z,3.06
2018-12-24T21:15:00.600Z,3.02
2018-12-24T21:17:29.064Z,2.98
2018-12-24T21:19:57.561Z,3.00
2018-12-24T21:22:26.051Z,3.02
2018-12-24T21:24:54.505Z,3.04
2018-12-24T21:27:23.109Z,3.09
2018-12-24T21:29:51.653Z,3.09
2018-12-24T21:32:20.100Z,3.13
2018-12-24T21:34:48.557Z,3.08
2018-12-24T21:37:17.021Z,3.07
2018-12-24T21:39:45.831Z,3.20
2018-12-24T21:42:14.262Z,3.23
2018-12-24T21:44:42.739Z,3.13
2018-12-24T21:47:11.212Z,3.12
2018-12-24T21:49:39.732Z,3.11
2018-12-24T21:52:08.183Z,3.17
2018-12-24T21:54:36.644Z,3.22
2018-12-24T21:57:06.123Z,3.19
2018-12-24T21:59:34.581Z,3.13
2018-12-24T22:02:03.029Z,3.19
2018-12-24T22:04:31.501Z,3.18
2018-12-24T22:06:59.936Z,3.13
2018-12-24T22:09:28.401Z,3.04
2018-12-24T22:11:56.857Z,3.06
2018-12-24T22:14:25.319Z,3.12
2018-12-24T22:16:53.761Z,3.21
2018-12-24T22:19:22.246Z,3.20
2018-12-24T22:21:52.347Z,3.14
2018-12-24T22:24:20.815Z,3.22
2018-12-24T22:26:49.380Z,3.14
2018-12-24T22:29:17.821Z,3.21
2018-12-24T22:31:46.255Z,3.27
2018-12-24T22:34:14.721Z,3.35
2018-12-24T22:36:43.163Z,3.36
2018-12-24T22:39:11.639Z,3.24
2018-12-24T22:41:40.094Z,3.28
2018-12-24T22:44:08.546Z,3.35
2018-12-24T22:46:36.999Z,3.40
2018-12-24T22:49:05.478Z,3.39
2018-12-24T22:51:33.913Z,3.39
2018-12-24T22:54:02.386Z,3.38
2018-12-24T22:56:30.868Z,3.41
2018-12-24T22:58:59.369Z,3.52
2018-12-24T23:01:27.999Z,3.53
2018-12-24T23:03:56.455Z,3.53
2018-12-24T23:06:24.995Z,3.53
2018-12-24T23:08:53.446Z,3.57
2018-12-24T23:11:21.911Z,3.58
2018-12-24T23:13:50.363Z,3.54
2018-12-24T23:16:18.814Z,3.64
2018-12-24T23:18:49.553Z,3.69
2018-12-24T23:21:17.462Z,3.64
2018-12-24T23:23:45.896Z,3.71
2018-12-24T23:26:14.381Z,3.77
2018-12-24T23:28:42.831Z,3.75
2018-12-24T23:31:11.311Z,3.79
2018-12-24T23:33:39.787Z,3.76
2018-12-24T23:36:08.263Z,3.78
2018-12-24T23:38:36.720Z,3.79
2018-12-24T23:41:05.178Z,3.77
2018-12-24T23:43:33.642Z,3.83
2018-12-24T23:46:02.088Z,3.75
2018-12-24T23:48:30.528Z,3.74
2018-12-24T23:50:59.004Z,3.85
2018-12-24T23:53:27.463Z,3.83
2018-12-24T23:55:55.915Z,3.85
2018-12-24T23:58:24.424Z,3.79
